createdAt,value
2023-05-13T00:00:42.011Z,7.00
2023-05-13T00:04:23.909Z,7.30
2023-05-13T00:08:07.562Z,7.90
2023-05-13T00:11:49.545Z,7.78
2023-05-13T00:15:31.476Z,8.43
2023-05-13T00:19:13.900Z,8.70
2023-05-13T00:22:55.966Z,7.50
2023-05-13T00:26:37.849Z,8.30
2023-05-13T00:30:21.174Z,7.40
2023-05-13T00:34:04.289Z,6.70
2023-05-13T00:37:46.164Z,7.80
2023-05-13T00:41:28.169Z,7.97
2023-05-13T00:45:10.376Z,8.67
2023-05-13T00:48:53.370Z,7.22
2023-05-13T00:52:37.333Z,7.78
2023-05-13T00:56:22.483Z,7.90
2023-05-13T01:00:08.138Z,7.30
2023-05-13T01:04:13.652Z,8.70
2023-05-13T01:08:04.462Z,8.98
2023-05-13T01:11:50.106Z,9.13
2023-05-13T01:15:33.163Z,8.20
2023-05-13T01:19:44.530Z,7.75
2023-05-13T01:23:26.528Z,7.17
2023-05-13T01:27:08.830Z,7.28
2023-05-13T01:30:51.292Z,6.85
2023-05-13T01:34:34.900Z,7.57
2023-05-13T01:38:20.300Z,6.32
2023-05-13T01:42:02.452Z,6.72
2023-05-13T01:45:44.717Z,8.27
2023-05-13T01:49:26.826Z,6.88
2023-05-13T01:53:08.776Z,7.07
2023-05-13T01:56:50.747Z,7.88
2023-05-13T02:00:32.578Z,7.30
2023-05-13T02:04:14.651Z,7.70
2023-05-13T02:07:56.589Z,7.18
2023-05-13T02:11:38.456Z,7.70
2023-05-13T02:15:20.473Z,6.80
2023-05-13T02:19:02.738Z,6.55
2023-05-13T02:22:44.645Z,6.22
2023-05-13T02:26:27.144Z,6.55
2023-05-13T02:30:09.484Z,6.03
2023-05-13T02:33:51.397Z,6.15
2023-05-13T02:37:33.423Z,6.33
2023-05-13T02:41:15.685Z,6.45
2023-05-13T02:44:57.808Z,7.13
2023-05-13T02:48:39.758Z,7.43
2023-05-13T02:52:21.651Z,6.85
2023-05-13T02:56:03.756Z,7.10
2023-05-13T02:59:45.856Z,6.83
2023-05-13T03:03:27.917Z,7.30
2023-05-13T03:07:10.041Z,6.70
2023-05-13T03:10:52.446Z,7.10
2023-05-13T03:14:36.833Z,6.37
2023-05-13T03:18:18.757Z,7.13
2023-05-13T03:22:00.660Z,7.07
2023-05-13T03:25:42.569Z,6.17
2023-05-13T03:29:24.835Z,6.63
2023-05-13T03:33:07.483Z,6.13
2023-05-13T03:36:49.339Z,7.72
2023-05-13T03:40:31.343Z,7.45
2023-05-13T03:44:13.276Z,7.68
2023-05-13T03:47:55.343Z,7.10
2023-05-13T03:51:37.231Z,5.93
2023-05-13T03:55:19.180Z,8.13
2023-05-13T03:59:01.094Z,7.22
2023-05-13T04:02:43.480Z,7.27
2023-05-13T04:06:25.697Z,7.22
2023-05-13T04:10:08.537Z,7.70
2023-05-13T04:13:50.532Z,7.38
2023-05-13T04:17:32.498Z,7.43
2023-05-13T04:21:14.436Z,7.45
2023-05-13T04:24:56.566Z,7.57
2023-05-13T04:28:38.566Z,7.27
2023-05-13T04:32:22.124Z,7.57
2023-05-13T04:36:04.389Z,6.90
2023-05-13T04:39:47.280Z,7.80
2023-05-13T04:43:29.450Z,7.20
2023-05-13T04:47:11.643Z,6.45
2023-05-13T04:50:53.568Z,6.82
2023-05-13T04:54:36.082Z,7.18
2023-05-13T04:58:17.989Z,6.75
2023-05-13T05:02:00.127Z,7.85
2023-05-13T05:05:42.158Z,7.33
2023-05-13T05:09:24.476Z,6.45
2023-05-13T05:13:15.753Z,7.97
2023-05-13T05:17:51.792Z,8.00
2023-05-13T05:21:41.189Z,7.90
2023-05-13T05:25:46.216Z,8.52
2023-05-13T05:29:34.814Z,9.17
2023-05-13T05:33:39.455Z,9.48
2023-05-13T05:37:28.842Z,8.07
2023-05-13T05:41:57.214Z,8.73
2023-05-13T05:46:26.662Z,8.50
2023-05-13T05:55:28.901Z,8.32
2023-05-13T05:59:39.489Z,8.03
2023-05-13T06:03:22.122Z,8.57
2023-05-13T06:07:26.134Z,8.02
2023-05-13T06:11:15.636Z,7.00
2023-05-13T06:15:21.790Z,8.27
2023-05-13T06:19:07.508Z,9.10
2023-05-13T06:27:00.376Z,7.17
2023-05-13T06:31:05.950Z,8.15
2023-05-13T06:34:56.303Z,7.32
2023-05-13T06:39:01.057Z,8.00
2023-05-13T06:42:50.885Z,7.72
2023-05-13T06:46:54.300Z,8.18
2023-05-13T06:50:43.646Z,9.17
2023-05-13T06:54:47.171Z,8.43
2023-05-13T06:58:36.448Z,8.88
2023-05-13T07:02:39.359Z,9.52
2023-05-13T07:06:30.823Z,8.53
2023-05-13T07:14:22.541Z,9.60
2023-05-13T07:18:25.736Z,9.95
2023-05-13T07:22:15.799Z,8.23
2023-05-13T07:26:20.232Z,10.03
2023-05-13T07:30:11.378Z,9.85
2023-05-13T07:34:14.162Z,9.88
2023-05-13T07:38:04.003Z,9.77
2023-05-13T07:45:54.885Z,8.63
2023-05-13T07:49:58.533Z,8.52
2023-05-13T07:53:48.146Z,8.20
2023-05-13T07:58:18.767Z,8.50
2023-05-13T08:02:21.727Z,8.10
2023-05-13T08:06:11.696Z,8.97
2023-05-13T08:10:14.467Z,9.93
2023-05-13T08:14:05.944Z,8.82
2023-05-13T08:18:08.392Z,10.33
2023-05-13T08:21:57.151Z,10.07
2023-05-13T08:26:00.890Z,10.75
2023-05-13T08:29:50.358Z,9.50
2023-05-13T08:33:53.845Z,9.45
2023-05-13T08:37:43.751Z,8.63
2023-05-13T08:41:46.422Z,9.45
2023-05-13T08:45:39.484Z,9.13
2023-05-13T08:49:42.641Z,9.27
2023-05-13T08:53:34.244Z,10.35
2023-05-13T08:57:31.282Z,9.57
2023-05-13T09:01:24.256Z,9.40
2023-05-13T09:05:24.987Z,7.35
2023-05-13T09:09:15.501Z,8.77
2023-05-13T09:13:22.111Z,6.57
2023-05-13T09:17:11.561Z,7.80
2023-05-13T09:25:43.076Z,9.17
2023-05-13T09:29:33.392Z,8.10
2023-05-13T09:33:35.647Z,7.43
2023-05-13T09:37:25.053Z,8.07
2023-05-13T09:41:31.934Z,7.77
2023-05-13T09:45:20.843Z,7.05
2023-05-13T09:49:24.420Z,9.20
2023-05-13T09:53:13.694Z,8.82
2023-05-13T09:57:17.765Z,9.27
2023-05-13T10:01:06.878Z,9.27
2023-05-13T10:05:08.938Z,8.88
2023-05-13T10:08:57.483Z,8.87
2023-05-13T10:13:04.760Z,9.18
2023-05-13T10:16:53.252Z,9.00
2023-05-13T10:20:56.243Z,9.10
2023-05-13T10:24:44.910Z,9.32
2023-05-13T10:28:48.527Z,9.15
2023-05-13T10:32:42.297Z,9.70
2023-05-13T10:36:38.768Z,9.13
2023-05-13T10:41:12.653Z,9.00
2023-05-13T10:45:04.816Z,10.02
2023-05-13T10:49:02.271Z,9.83
2023-05-13T10:52:58.869Z,10.20
2023-05-13T10:56:59.265Z,10.23
2023-05-13T11:00:48.853Z,10.37
2023-05-13T11:08:42.956Z,9.35
2023-05-13T11:12:42.644Z,8.45
2023-05-13T11:16:34.213Z,9.00
2023-05-13T11:24:26.762Z,7.60
2023-05-13T11:38:36.793Z,7.00
2023-05-13T11:42:30.581Z,6.30
2023-05-13T11:46:28.102Z,6.43
2023-05-13T11:50:23.273Z,6.13
2023-05-13T11:54:22.996Z,6.22
2023-05-13T11:58:17.574Z,6.20
2023-05-13T12:02:15.126Z,5.97
2023-05-13T12:06:09.826Z,5.97
2023-05-13T12:10:11.883Z,6.47
2023-05-13T12:14:01.961Z,6.82
2023-05-13T12:18:03.235Z,5.80
2023-05-13T12:21:56.794Z,7.23
2023-05-13T12:25:58.584Z,6.47
2023-05-13T12:29:47.882Z,6.70
2023-05-13T12:37:39.641Z,7.20
2023-05-13T12:42:19.305Z,6.95
2023-05-13T12:50:15.921Z,7.45
2023-05-13T12:54:08.519Z,7.47
2023-05-13T12:58:42.141Z,7.43
2023-05-13T13:02:35.646Z,7.13
2023-05-13T13:06:35.364Z,7.53
2023-05-13T13:10:31.521Z,8.05
2023-05-13T13:36:22.571Z,8.30
2023-05-13T13:49:54.699Z,9.52
2023-05-13T13:54:22.137Z,9.95
2023-05-13T14:02:47.169Z,9.23
2023-05-13T14:11:20.244Z,9.63
2023-05-13T14:15:18.548Z,10.25
2023-05-13T14:19:06.320Z,10.10
2023-05-13T14:23:40.603Z,11.10
2023-05-13T14:32:45.733Z,10.10
2023-05-13T14:46:05.866Z,10.23
2023-05-13T14:50:08.337Z,10.32
2023-05-13T14:54:06.795Z,10.18
2023-05-13T15:03:04.246Z,9.85
2023-05-13T15:12:02.938Z,10.10
2023-05-13T15:21:03.621Z,10.48
2023-05-13T15:25:06.852Z,9.67
2023-05-13T15:29:00.232Z,10.23
2023-05-13T15:36:49.989Z,11.20
2023-05-13T15:53:44.515Z,9.40
2023-05-13T16:07:16.363Z,12.37
2023-05-13T16:25:15.670Z,13.18
2023-05-13T16:34:17.662Z,11.77
2023-05-13T16:52:17.742Z,9.93
2023-05-13T17:10:21.051Z,9.43
2023-05-13T17:14:46.753Z,10.02
2023-05-13T17:47:26.259Z,8.60
2023-05-13T18:01:10.433Z,8.25
2023-05-13T18:05:30.961Z,8.85
2023-05-13T18:41:07.729Z,8.15
2023-05-13T18:58:25.494Z,8.20
2023-05-13T19:16:33.255Z,8.60
2023-05-13T19:36:50.771Z,9.60
2023-05-13T19:41:21.304Z,9.77
2023-05-13T19:58:23.455Z,9.45
2023-05-13T20:02:05.798Z,9.55
2023-05-13T20:05:48.881Z,9.85
2023-05-13T20:09:31.139Z,9.60
2023-05-13T20:13:13.166Z,9.50
2023-05-13T20:16:55.183Z,9.75
2023-05-13T20:20:37.149Z,9.03
2023-05-13T20:24:19.121Z,9.38
2023-05-13T20:28:01.133Z,9.57
2023-05-13T20:31:43.284Z,10.40
2023-05-13T20:35:25.411Z,9.60
2023-05-13T20:39:07.774Z,9.70
2023-05-13T20:42:49.790Z,9.95
2023-05-13T20:46:31.882Z,8.93
2023-05-13T20:50:14.143Z,9.70
2023-05-13T20:53:56.257Z,9.73
2023-05-13T20:57:39.586Z,9.63
2023-05-13T21:01:21.727Z,9.98
2023-05-13T21:05:04.526Z,9.70
2023-05-13T21:08:46.566Z,10.03
2023-05-13T21:12:35.481Z,9.95
2023-05-13T21:16:17.716Z,9.55
2023-05-13T21:19:59.858Z,10.35
2023-05-13T21:23:44.220Z,9.38
2023-05-13T21:27:29.206Z,10.10
2023-05-13T21:31:11.370Z,9.32
2023-05-13T21:34:58.108Z,8.33
2023-05-13T21:38:43.869Z,8.90
2023-05-13T21:42:27.222Z,10.52
2023-05-13T21:46:09.221Z,10.50
2023-05-13T21:49:51.225Z,10.32
2023-05-13T21:53:34.187Z,10.60
2023-05-13T21:57:16.387Z,10.52
2023-05-13T22:01:00.294Z,11.73
2023-05-13T22:04:42.665Z,12.38
2023-05-13T22:08:24.737Z,12.13
2023-05-13T22:12:07.379Z,11.87
2023-05-13T22:15:49.415Z,12.73
2023-05-13T22:19:31.552Z,13.82
2023-05-13T22:23:16.491Z,13.10
2023-05-13T22:26:58.875Z,12.60
2023-05-13T22:30:44.890Z,11.95
2023-05-13T22:34:27.090Z,14.63
2023-05-13T22:38:09.041Z,14.45
2023-05-13T22:41:51.189Z,14.85
2023-05-13T22:45:33.269Z,14.13
2023-05-13T22:49:15.412Z,13.17
2023-05-13T22:52:57.389Z,13.55
2023-05-13T22:56:39.528Z,13.40
2023-05-13T23:00:21.737Z,13.47
2023-05-13T23:04:05.834Z,13.52
2023-05-13T23:07:48.026Z,13.18
2023-05-13T23:11:30.060Z,13.73
2023-05-13T23:15:14.638Z,12.48
2023-05-13T23:18:57.047Z,14.30
2023-05-13T23:22:39.098Z,13.98
2023-05-13T23:26:22.243Z,12.07
2023-05-13T23:30:04.689Z,12.27
2023-05-13T23:33:46.765Z,10.98
2023-05-13T23:37:28.756Z,10.70
2023-05-13T23:41:10.756Z,11.25
2023-05-13T23:44:52.747Z,11.82
2023-05-13T23:48:34.834Z,11.85
2023-05-13T23:52:17.380Z,11.65
2023-05-13T23:55:59.449Z,11.98
2023-05-13T23:59:41.412Z,10.95
